Time;durP1;ratioP1;P1;durP2;ratioP2;P2;SDS_P1;SDS_P2;PMS_P1;PMS_P2;Temp;Humidity;BMP_temperature;BMP_pressure;BME280_temperature;BME280_humidity;BME280_pressure;Samples;Min_cycle;Max_cycle;Signal;HPM_P1;HPM_P2
2023/01/25 00:02:09;;;;;;;25.30;16.45;;;;;;;1.90;88.51;103101.47;4997094;28;20128;-63
2023/01/25 00:04:36;;;;;;;23.52;16.02;;;;;;;1.94;88.53;103092.00;5008397;28;20133;-62
2023/01/25 00:07:04;;;;;;;25.40;15.90;;;;;;;1.95;88.48;103081.63;5006819;28;20467;-63
2023/01/25 00:09:31;;;;;;;22.90;15.50;;;;;;;1.96;88.51;103079.91;5000199;28;20064;-63
2023/01/25 00:11:58;;;;;;;25.02;16.15;;;;;;;1.89;88.14;103071.16;4986646;28;20046;-63
2023/01/25 00:14:25;;;;;;;27.33;16.38;;;;;;;1.81;88.15;103072.75;5000690;28;20140;-62
2023/01/25 00:16:52;;;;;;;26.13;15.82;;;;;;;1.82;88.77;103071.00;5009027;28;20056;-63
2023/01/25 00:19:20;;;;;;;26.60;15.57;;;;;;;1.85;88.36;103071.94;5001769;28;20058;-63
2023/01/25 00:21:47;;;;;;;24.67;17.25;;;;;;;1.81;88.78;103059.75;5009024;28;20050;-62
2023/01/25 00:24:14;;;;;;;28.00;16.60;;;;;;;1.82;88.88;103050.22;5009006;28;20049;-63
2023/01/25 00:26:44;;;;;;;27.17;16.35;;;;;;;1.83;88.21;103041.59;5004420;28;20049;-62
2023/01/25 00:29:12;;;;;;;24.75;16.15;;;;;;;1.75;88.00;103036.25;5004150;28;20054;-62
2023/01/25 00:32:38;;;;;;;23.15;15.15;;;;;;;1.74;88.40;103024.13;4996587;28;20654;-63
2023/01/25 00:35:55;;;;;;;24.58;16.48;;;;;;;1.74;88.48;103021.53;5001423;28;20060;-64
2023/01/25 00:38:33;;;;;;;28.30;17.30;;;;;;;1.76;88.48;103006.88;4995464;28;20056;-62
2023/01/25 00:41:00;;;;;;;25.45;15.30;;;;;;;1.81;88.83;103000.03;5000109;28;20470;-60
2023/01/25 00:43:27;;;;;;;26.58;16.52;;;;;;;1.85;88.71;103004.41;5004222;28;20078;-62
2023/01/25 00:46:00;;;;;;;24.95;16.17;;;;;;;1.87;88.79;103000.09;5023299;28;20091;-63
2023/01/25 00:48:28;;;;;;;24.58;15.88;;;;;;;1.92;88.59;102982.00;5019635;28;20196;-62
2023/01/25 00:51:02;;;;;;;26.75;16.45;;;;;;;1.95;88.52;102982.91;5014447;28;21037;-61
2023/01/25 00:53:29;;;;;;;24.33;16.58;;;;;;;1.95;88.07;102980.31;5019111;28;20053;-62
2023/01/25 00:55:56;;;;;;;24.38;15.65;;;;;;;1.98;88.52;102982.97;5016295;28;20623;-63
2023/01/25 00:58:23;;;;;;;29.10;17.65;;;;;;;2.00;88.59;102980.38;5002514;28;20056;-64
2023/01/25 01:00:52;;;;;;;24.90;16.58;;;;;;;1.97;88.65;102980.31;5025925;28;20132;-61
2023/01/25 01:03:19;;;;;;;26.65;16.83;;;;;;;1.92;88.55;102985.44;5008908;28;20141;-62
2023/01/25 01:05:46;;;;;;;23.92;15.70;;;;;;;1.95;88.71;102993.31;5012599;28;20081;-64
2023/01/25 01:20:33;;;;;;;24.73;15.75;;;;;;;2.07;88.09;102987.38;5020903;28;20197;-62
2023/01/25 01:23:00;;;;;;;27.38;17.95;;;;;;;2.06;88.20;102992.56;5019358;28;20052;-62
2023/01/25 01:25:27;;;;;;;27.08;16.50;;;;;;;2.06;88.14;102989.97;5015320;28;20141;-62
2023/01/25 01:27:54;;;;;;;30.73;17.42;;;;;;;2.03;88.39;102986.50;4984953;28;20459;-61
2023/01/25 01:30:22;;;;;;;27.55;16.95;;;;;;;2.01;88.38;102990.78;5000031;28;20054;-63
2023/01/25 01:32:50;;;;;;;26.65;16.90;;;;;;;2.01;88.48;102993.38;5020138;28;20054;-63
2023/01/25 01:35:17;;;;;;;26.08;16.52;;;;;;;2.03;88.40;102991.69;5022979;28;20061;-62
2023/01/25 01:37:45;;;;;;;26.70;17.00;;;;;;;2.07;88.56;102991.72;5022973;28;20164;-62
2023/01/25 01:40:15;;;;;;;26.73;16.30;;;;;;;2.09;88.44;102982.25;5022320;28;20073;-62
2023/01/25 01:43:00;;;;;;;25.13;16.17;;;;;;;2.09;88.56;102984.84;5024909;28;20447;-64
2023/01/25 01:45:42;;;;;;;27.00;16.63;;;;;;;2.07;88.14;102986.53;5015073;28;20060;-62
2023/01/25 01:48:32;;;;;;;25.10;15.65;;;;;;;2.07;88.12;102986.53;5021103;28;20157;-64
2023/01/25 01:51:02;;;;;;;23.10;16.02;;;;;;;2.01;87.90;102984.72;5019206;28;20133;-63
2023/01/25 01:53:31;;;;;;;24.05;16.85;;;;;;;1.99;88.42;102976.03;4999482;28;20054;-61
2023/01/25 01:56:02;;;;;;;24.20;16.63;;;;;;;1.95;88.14;102979.44;5005776;28;20059;-63
2023/01/25 01:58:29;;;;;;;24.98;16.08;;;;;;;1.93;88.14;102973.34;5027343;28;20657;-62
2023/01/25 02:00:57;;;;;;;23.42;15.40;;;;;;;1.90;88.21;102973.31;5024532;28;20053;-62
2023/01/25 02:03:24;;;;;;;25.10;17.08;;;;;;;1.84;88.03;102971.47;5024484;28;20041;-61
2023/01/25 02:06:00;;;;;;;23.02;15.63;;;;;;;1.84;88.48;102971.47;5025700;28;20048;-61
2023/01/25 02:08:29;;;;;;;25.25;15.55;;;;;;;1.93;88.65;102976.81;4989672;28;20054;-62
2023/01/25 02:10:57;;;;;;;24.38;16.65;;;;;;;1.97;88.35;102976.00;5004538;28;20409;-62
2023/01/25 02:13:25;;;;;;;26.95;17.63;;;;;;;1.89;88.14;102972.44;5022951;28;20054;-63
2023/01/25 02:15:52;;;;;;;23.83;15.80;;;;;;;1.88;88.33;102969.81;5006544;28;20678;-61
2023/01/25 02:18:20;;;;;;;25.48;16.55;;;;;;;1.90;88.59;102966.38;5021720;28;20088;-63
2023/01/25 02:20:51;;;;;;;22.83;15.93;;;;;;;1.94;88.71;102968.19;5017145;28;20046;-62
2023/01/25 02:23:42;;;;;;;25.80;16.35;;;;;;;1.96;88.54;102965.59;5008237;28;20308;-64
2023/01/25 02:26:09;;;;;;;24.80;16.65;;;;;;;1.94;88.76;102960.38;4988187;28;20149;-61
2023/01/25 02:28:45;;;;;;;22.55;15.60;;;;;;;1.97;89.10;102956.94;5004105;28;20181;-61
2023/01/25 02:34:05;;;;;;;27.50;16.70;;;;;;;2.00;88.75;102955.28;5020840;28;20104;-64
2023/01/25 02:36:33;;;;;;;23.75;16.52;;;;;;;1.93;88.48;102961.22;5019720;28;20653;-63
2023/01/25 02:39:07;;;;;;;23.63;16.45;;;;;;;1.93;88.79;102956.03;5006574;28;20144;-62
2023/01/25 02:41:39;;;;;;;21.98;16.73;;;;;;;1.99;88.71;102950.94;5023254;28;20048;-63
2023/01/25 02:44:10;;;;;;;23.08;15.68;;;;;;;2.02;88.68;102940.56;5018832;28;20056;-63
2023/01/25 02:46:38;;;;;;;22.88;15.13;;;;;;;2.03;88.66;102950.13;4999449;28;20052;-62
2023/01/25 02:49:08;;;;;;;24.35;16.42;;;;;;;2.07;88.62;102947.53;5018533;28;20133;-62
2023/01/25 02:51:40;;;;;;;22.60;15.80;;;;;;;2.10;88.74;102943.28;5022376;28;20068;-63
2023/01/25 02:54:09;;;;;;;25.60;17.63;;;;;;;2.10;88.67;102935.47;5026697;28;20137;-61
2023/01/25 02:56:39;;;;;;;26.13;16.77;;;;;;;2.09;88.92;102949.31;5015643;28;20417;-62
2023/01/25 02:59:07;;;;;;;24.80;17.05;;;;;;;2.07;87.99;102942.34;5025273;28;20119;-60
2023/01/25 03:01:36;;;;;;;27.42;17.73;;;;;;;2.03;88.22;102941.47;5022417;28;20041;-62
2023/01/25 03:04:04;;;;;;;24.83;16.30;;;;;;;1.97;88.49;102931.84;4999570;28;20049;-62
2023/01/25 03:06:33;;;;;;;27.35;17.30;;;;;;;2.00;88.94;102938.81;5001952;28;20152;-62
2023/01/25 03:09:02;;;;;;;24.08;17.38;;;;;;;2.03;89.04;102941.47;5024895;28;20041;-62
2023/01/25 03:11:29;;;;;;;25.17;17.73;;;;;;;2.09;89.03;102938.06;5020162;28;20141;-63
2023/01/25 03:13:57;;;;;;;32.53;19.63;;;;;;;2.09;88.71;102930.28;5018178;28;20049;-63
2023/01/25 03:16:24;;;;;;;27.48;17.40;;;;;;;2.08;88.95;102937.19;5006148;28;20062;-63
2023/01/25 03:18:54;;;;;;;27.90;18.63;;;;;;;2.03;88.58;102924.16;5017995;28;20097;-61
2023/01/25 03:21:23;;;;;;;29.98;18.77;;;;;;;2.00;88.46;102926.69;5025304;28;20140;-63
2023/01/25 03:23:56;;;;;;;26.73;17.90;;;;;;;1.97;88.86;102918.84;5020347;28;20053;-63
2023/01/25 03:26:24;;;;;;;24.52;17.65;;;;;;;2.00;89.13;102915.44;5028744;28;20072;-62
2023/01/25 03:28:51;;;;;;;24.98;17.27;;;;;;;2.02;88.94;102916.31;5026674;28;20041;-63
2023/01/25 03:31:18;;;;;;;31.02;18.27;;;;;;;2.05;89.32;102916.34;5028914;28;20540;-63
2023/01/25 03:33:46;;;;;;;27.27;17.40;;;;;;;2.07;89.01;102917.25;5027434;28;20129;-62
2023/01/25 03:36:13;;;;;;;23.20;17.30;;;;;;;2.09;89.04;102915.56;5023702;28;20154;-62
2023/01/25 03:38:40;;;;;;;22.85;16.38;;;;;;;2.10;89.14;102908.63;5030772;28;20049;-62
2023/01/25 03:41:08;;;;;;;26.05;17.67;;;;;;;2.17;88.83;102910.47;5007171;28;20140;-62
2023/01/25 03:43:35;;;;;;;28.50;18.60;;;;;;;2.19;88.76;102913.94;5030996;28;20124;-63
2023/01/25 03:46:02;;;;;;;28.00;19.10;;;;;;;2.17;88.49;102900.06;5024507;28;20057;-63
2023/01/25 03:48:30;;;;;;;28.40;18.40;;;;;;;2.18;88.75;102913.06;5033298;28;20222;-61
2023/01/25 03:50:58;;;;;;;26.85;18.50;;;;;;;2.24;88.81;102904.47;5027796;28;20052;-62
2023/01/25 03:53:30;;;;;;;27.95;18.60;;;;;;;2.26;88.63;102900.19;5022848;28;20129;-62
2023/01/25 03:56:03;;;;;;;22.75;16.73;;;;;;;2.24;88.62;102894.94;5027229;28;20057;-63
2023/01/25 03:58:30;;;;;;;26.70;17.38;;;;;;;2.24;89.03;102896.66;5015421;28;20621;-62
2023/01/25 04:00:59;;;;;;;20.98;15.52;;;;;;;2.22;88.86;102893.19;5022531;28;20156;-63
2023/01/25 04:03:27;;;;;;;24.63;16.55;;;;;;;2.24;88.77;102886.28;5026696;28;20128;-62
2023/01/25 04:05:57;;;;;;;27.10;17.58;;;;;;;2.27;89.03;102875.91;5023945;28;20145;-62
2023/01/25 04:08:25;;;;;;;26.23;18.23;;;;;;;2.27;88.38;102879.38;5020734;28;20053;-62
2023/01/25 04:10:58;;;;;;;28.27;18.05;;;;;;;2.31;88.36;102875.09;5006146;28;20570;-62
2023/01/25 04:13:25;;;;;;;27.60;18.23;;;;;;;2.31;88.01;102866.44;5008502;28;20056;-63
2023/01/25 04:15:53;;;;;;;24.98;16.75;;;;;;;2.30;88.00;102862.97;5011071;28;20052;-61
2023/01/25 04:18:20;;;;;;;27.33;17.95;;;;;;;2.34;88.23;102861.25;5020287;28;20057;-62
2023/01/25 04:20:54;;;;;;;26.88;17.60;;;;;;;2.38;88.48;102852.63;5017604;28;20469;-62
2023/01/25 04:23:22;;;;;;;27.15;18.65;;;;;;;2.41;87.78;102843.16;5022637;28;20179;-62
2023/01/25 04:25:57;;;;;;;23.63;17.35;;;;;;;2.42;87.88;102847.47;5029083;28;20057;-63
2023/01/25 04:28:25;;;;;;;29.38;19.05;;;;;;;2.39;87.89;102850.06;5021875;28;20050;-62
2023/01/25 04:30:54;;;;;;;27.85;18.63;;;;;;;2.36;88.26;102843.97;5026112;28;20077;-63
2023/01/25 04:33:22;;;;;;;27.63;17.40;;;;;;;2.38;88.04;102843.09;5012097;28;20506;-63
2023/01/25 04:35:49;;;;;;;27.98;18.58;;;;;;;2.40;88.20;102836.22;5020928;28;20054;-62
2023/01/25 04:38:17;;;;;;;29.33;18.48;;;;;;;2.39;87.99;102828.41;5008252;28;20064;-63
2023/01/25 04:40:45;;;;;;;25.58;17.23;;;;;;;2.39;88.26;102829.28;5021439;28;20136;-63
2023/01/25 04:43:13;;;;;;;28.98;18.20;;;;;;;2.40;88.31;102825.81;5005939;28;20145;-63
2023/01/25 04:45:41;;;;;;;26.55;17.70;;;;;;;2.36;88.44;102831.84;5018646;28;20152;-63
2023/01/25 04:48:09;;;;;;;25.70;17.42;;;;;;;2.36;88.53;102824.03;5021527;28;20645;-62
2023/01/25 04:50:37;;;;;;;25.83;17.45;;;;;;;2.32;88.25;102816.19;5019496;28;20400;-63
2023/01/25 04:53:06;;;;;;;25.42;17.25;;;;;;;2.28;88.29;102817.88;5022594;28;20053;-60
2023/01/25 04:55:33;;;;;;;24.55;16.63;;;;;;;2.25;88.71;102816.16;5002234;28;20063;-62
2023/01/25 04:58:01;;;;;;;25.42;14.88;;;;;;;2.25;88.73;102816.16;5020432;28;20144;-63
2023/01/25 05:00:29;;;;;;;18.65;13.18;;;;;;;2.16;88.90;102813.44;5015634;28;20061;-59
2023/01/25 05:02:56;;;;;;;19.38;13.35;;;;;;;2.19;88.91;102810.84;5019292;28;20629;-61
2023/01/25 05:05:23;;;;;;;20.25;13.05;;;;;;;2.21;89.21;102803.97;5017597;28;20239;-61
2023/01/25 05:07:51;;;;;;;18.77;12.65;;;;;;;2.31;89.28;102804.06;5018507;28;20104;-62
2023/01/25 05:10:18;;;;;;;17.17;11.70;;;;;;;2.35;89.06;102806.72;5018636;28;20057;-62
2023/01/25 05:12:45;;;;;;;19.05;11.85;;;;;;;2.36;88.96;102798.03;5018544;28;20124;-64
2023/01/25 05:15:12;;;;;;;17.63;11.77;;;;;;;2.34;89.41;102796.28;5016322;28;20045;-62
2023/01/25 05:17:39;;;;;;;18.23;13.00;;;;;;;2.37;89.10;102804.97;5017126;23;20053;-77
2023/01/25 05:20:07;;;;;;;18.83;12.23;;;;;;;2.32;89.15;102801.47;5005864;28;20056;-77
2023/01/25 05:22:35;;;;;;;17.27;12.63;;;;;;;2.32;89.20;102803.19;4986246;28;20114;-80
2023/01/25 05:25:03;;;;;;;19.77;12.32;;;;;;;2.20;89.38;102798.72;4988672;23;20053;-65
2023/01/25 05:27:30;;;;;;;15.98;11.63;;;;;;;2.09;89.71;102792.56;4987821;28;20047;-65
2023/01/25 05:29:57;;;;;;;18.10;11.93;;;;;;;2.13;89.90;102799.53;4973688;28;20086;-64
2023/01/25 05:32:24;;;;;;;19.67;12.18;;;;;;;2.16;90.03;102796.97;4980375;28;20125;-63
2023/01/25 05:34:51;;;;;;;19.23;13.40;;;;;;;2.19;90.13;102794.41;4974846;28;20058;-65
2023/01/25 05:37:19;;;;;;;16.70;12.45;;;;;;;2.23;90.07;102793.59;4986003;28;20054;-64
2023/01/25 05:39:47;;;;;;;18.85;12.85;;;;;;;2.31;89.85;102798.88;4990959;28;20137;-64
2023/01/25 05:42:17;;;;;;;19.25;12.75;;;;;;;2.33;89.78;102799.75;4985833;28;20137;-63
2023/01/25 05:44:44;;;;;;;20.15;13.55;;;;;;;2.38;89.69;102811.91;4983512;28;20046;-62
2023/01/25 05:47:32;;;;;;;21.33;13.23;;;;;;;2.41;89.44;102806.75;4982579;28;20050;-65
2023/01/25 05:50:30;;;;;;;21.05;13.00;;;;;;;2.43;89.30;102815.47;4991025;28;21224;-63
2023/01/25 05:52:58;;;;;;;20.83;13.07;;;;;;;2.45;89.35;102805.06;4985603;28;20682;-66
2023/01/25 05:55:25;;;;;;;20.58;13.55;;;;;;;2.48;89.45;102797.31;4985850;28;20465;-65
2023/01/25 05:57:55;;;;;;;18.95;12.60;;;;;;;2.37;89.29;102791.13;4975295;28;20133;-63
2023/01/25 06:00:22;;;;;;;17.83;12.73;;;;;;;2.38;89.68;102798.06;4958658;28;20133;-65
2023/01/25 06:02:50;;;;;;;19.77;13.27;;;;;;;2.28;89.57;102795.38;4973525;28;20978;-64
2023/01/25 06:05:17;;;;;;;15.57;11.40;;;;;;;2.25;89.58;102791.84;4988210;28;20082;-64
2023/01/25 06:07:44;;;;;;;17.83;11.52;;;;;;;2.31;90.03;102784.13;4972415;28;20513;-63
2023/01/25 06:10:11;;;;;;;16.55;11.43;;;;;;;2.36;89.72;102786.78;4985841;28;20080;-64
2023/01/25 06:12:39;;;;;;;19.02;10.85;;;;;;;2.38;89.42;102778.13;4983422;28;20062;-65
2023/01/25 06:15:07;;;;;;;16.15;11.02;;;;;;;2.38;89.46;102778.13;4989186;28;20042;-64
2023/01/25 06:17:34;;;;;;;17.50;12.00;;;;;;;2.35;89.96;102775.53;4980532;28;20058;-64
2023/01/25 06:20:02;;;;;;;18.17;12.32;;;;;;;2.34;89.67;102776.34;4982552;28;20055;-63
2023/01/25 06:22:29;;;;;;;16.52;11.43;;;;;;;2.30;89.59;102777.22;4980613;28;20059;-64
2023/01/25 06:24:56;;;;;;;15.90;11.40;;;;;;;2.25;89.87;102773.66;4962543;28;20142;-65
2023/01/25 06:27:23;;;;;;;15.95;10.80;;;;;;;2.24;90.07;102771.94;4980803;28;20526;-65
2023/01/25 06:29:50;;;;;;;15.00;10.75;;;;;;;2.23;90.17;102767.59;4967906;28;20042;-65
2023/01/25 06:32:17;;;;;;;14.05;9.60;;;;;;;2.20;90.21;102771.00;4963470;28;20058;-64
2023/01/25 06:34:45;;;;;;;15.23;10.68;;;;;;;2.17;90.07;102783.13;4987367;28;20522;-64
2023/01/25 06:37:12;;;;;;;14.20;10.57;;;;;;;2.10;90.35;102782.19;4981078;28;20077;-64
2023/01/25 06:39:39;;;;;;;18.08;10.05;;;;;;;1.97;90.68;102775.09;4978679;28;20126;-64
2023/01/25 06:44:59;;;;;;;20.27;10.95;;;;;;;1.94;91.74;102767.31;4984229;28;20053;-64
2023/01/25 06:47:26;;;;;;;16.38;10.98;;;;;;;2.00;91.79;102769.97;4980701;28;20077;-64
2023/01/25 06:49:53;;;;;;;14.00;9.90;;;;;;;2.09;91.76;102759.66;4990009;28;20062;-65
2023/01/25 06:52:20;;;;;;;14.48;9.70;;;;;;;2.15;91.43;102764.91;4969760;28;20078;-63
2023/01/25 06:54:47;;;;;;;15.40;9.57;;;;;;;2.19;91.46;102755.41;4968676;28;20138;-63
2023/01/25 06:57:14;;;;;;;17.33;10.70;;;;;;;2.21;91.25;102752.00;4989951;28;20430;-63
2023/01/25 06:59:42;;;;;;;18.05;11.48;;;;;;;2.20;91.29;102741.56;4983674;28;20074;-63
2023/01/25 07:02:17;;;;;;;21.13;11.73;;;;;;;2.11;91.82;102739.75;4983938;28;20073;-63
2023/01/25 07:04:45;;;;;;;17.65;12.18;;;;;;;2.06;91.89;102740.56;4982745;28;20056;-64
2023/01/25 07:07:12;;;;;;;21.55;12.95;;;;;;;2.07;91.61;102744.91;4990966;28;20054;-63
2023/01/25 07:09:40;;;;;;;20.23;12.80;;;;;;;1.96;91.80;102743.06;4971695;28;20340;-63
2023/01/25 07:12:07;;;;;;;16.80;12.13;;;;;;;1.89;91.94;102746.47;4984465;28;20058;-64
2023/01/25 07:14:34;;;;;;;20.38;12.95;;;;;;;1.84;92.42;102745.53;4991453;28;20288;-64
2023/01/25 07:17:01;;;;;;;19.95;13.00;;;;;;;1.81;92.75;102742.91;4979671;28;20160;-65
2023/01/25 07:19:30;;;;;;;21.13;14.43;;;;;;;1.83;92.98;102737.72;4972979;28;20061;-64
2023/01/25 07:21:58;;;;;;;20.63;14.00;;;;;;;1.80;93.23;102732.50;4988087;28;20058;-62
2023/01/25 07:24:27;;;;;;;22.48;14.35;;;;;;;1.84;93.26;102734.25;4980254;28;20133;-64
2023/01/25 07:26:54;;;;;;;22.55;14.52;;;;;;;1.96;93.45;102732.69;4985198;28;20058;-62
2023/01/25 07:29:22;;;;;;;25.60;15.13;;;;;;;2.03;92.91;102728.44;4985863;28;20064;-64
2023/01/25 07:31:49;;;;;;;25.55;16.45;;;;;;;1.95;92.52;102727.47;4982097;28;20398;-64
2023/01/25 07:34:16;;;;;;;22.88;15.05;;;;;;;1.90;92.55;102719.63;4986168;28;20423;-64
2023/01/25 07:36:43;;;;;;;23.35;16.48;;;;;;;1.94;92.80;102717.94;4976914;28;20385;-64
2023/01/25 07:39:10;;;;;;;24.95;15.50;;;;;;;1.92;92.73;102712.72;4980942;28;20450;-63
2023/01/25 07:41:38;;;;;;;30.08;17.80;;;;;;;1.95;93.01;102720.56;4990366;28;20089;-63
2023/01/25 07:44:05;;;;;;;25.58;16.42;;;;;;;1.99;92.44;102714.53;4981643;28;20050;-64
2023/01/25 07:46:33;;;;;;;29.67;18.27;;;;;;;1.99;92.88;102709.34;4985236;28;20219;-64
2023/01/25 07:49:00;;;;;;;31.27;20.10;;;;;;;2.03;92.66;102718.03;4988096;28;20132;-64
2023/01/25 07:51:29;;;;;;;32.15;19.48;;;;;;;2.06;92.35;102710.25;4985685;28;20080;-63
2023/01/25 07:53:59;;;;;;;31.05;19.83;;;;;;;2.00;92.27;102711.06;4986190;28;20149;-64
2023/01/25 07:56:32;;;;;;;31.45;21.17;;;;;;;1.87;93.09;102716.13;4968922;28;20081;-64
2023/01/25 07:59:01;;;;;;;32.58;20.27;;;;;;;1.70;93.49;102702.97;4982435;28;20282;-64
2023/01/25 08:01:31;;;;;;;30.40;19.92;;;;;;;1.72;93.78;102703.88;4973125;28;20422;-64
2023/01/25 08:03:58;;;;;;;32.85;20.95;;;;;;;1.66;93.79;102696.84;4986335;28;20487;-63
2023/01/25 08:06:33;;;;;;;34.20;21.02;;;;;;;1.62;94.17;102692.50;4987057;28;20526;-63
2023/01/25 08:09:03;;;;;;;33.47;20.95;;;;;;;1.68;94.42;102691.69;4983428;28;20058;-62
2023/01/25 08:11:30;;;;;;;39.42;23.83;;;;;;;1.66;94.43;102693.38;4989494;28;20141;-62
2023/01/25 08:14:00;;;;;;;36.78;23.50;;;;;;;1.59;95.13;102696.78;4979907;28;20531;-62
2023/01/25 08:16:29;;;;;;;37.60;23.25;;;;;;;1.60;95.21;102689.00;4978640;28;20130;-63
2023/01/25 08:18:58;;;;;;;36.17;22.45;;;;;;;1.55;95.76;102685.50;4986595;28;20064;-63
2023/01/25 08:21:29;;;;;;;36.40;22.98;;;;;;;1.48;96.04;102686.25;4990653;28;20141;-64
2023/01/25 08:23:58;;;;;;;38.00;23.98;;;;;;;1.43;96.58;102680.16;4978522;28;20460;-63
2023/01/25 08:26:25;;;;;;;44.03;24.30;;;;;;;1.38;97.03;102668.84;4979512;28;20043;-64
2023/01/25 08:28:52;;;;;;;42.08;24.33;;;;;;;1.44;97.14;102676.69;4983838;28;20054;-64
2023/01/25 08:31:23;;;;;;;36.95;20.63;;;;;;;1.50;96.97;102679.38;4987132;28;20094;-64
2023/01/25 08:33:50;;;;;;;41.50;22.90;;;;;;;1.59;96.72;102682.06;4965581;28;20072;-64
2023/01/25 08:36:19;;;;;;;39.45;23.02;;;;;;;1.65;96.48;102678.66;4980703;28;20064;-64
2023/01/25 08:38:46;;;;;;;37.85;21.75;;;;;;;1.70;96.61;102677.00;4987064;28;20054;-64
2023/01/25 08:41:16;;;;;;;31.75;21.10;;;;;;;1.75;96.21;102675.31;4985923;28;20071;-62
2023/01/25 08:43:45;;;;;;;39.35;23.13;;;;;;;1.73;95.88;102674.44;4989708;28;20058;-63
2023/01/25 08:46:14;;;;;;;36.85;22.42;;;;;;;1.68;96.13;102671.78;4986952;28;20289;-63
2023/01/25 08:48:41;;;;;;;35.22;21.77;;;;;;;1.66;96.34;102665.69;4985410;28;20053;-64
2023/01/25 08:51:11;;;;;;;33.80;21.50;;;;;;;1.64;96.79;102667.41;4989796;28;20050;-63
2023/01/25 08:53:38;;;;;;;36.55;22.55;;;;;;;1.60;97.17;102672.56;4978631;28;20062;-63
2023/01/25 08:56:10;;;;;;;33.92;21.58;;;;;;;1.56;97.14;102669.06;4985088;28;20058;-64
2023/01/25 08:58:39;;;;;;;29.80;20.05;;;;;;;1.56;97.43;102670.78;4973317;28;20042;-63
2023/01/25 09:01:07;;;;;;;33.63;21.27;;;;;;;1.57;97.61;102673.38;4984361;28;20076;-64
2023/01/25 09:03:37;;;;;;;31.45;20.02;;;;;;;1.57;97.52;102672.53;4987114;28;20045;-63
2023/01/25 09:06:04;;;;;;;32.03;21.10;;;;;;;1.58;97.60;102667.38;4980309;28;20137;-63
2023/01/25 09:08:33;;;;;;;33.20;20.17;;;;;;;1.61;97.59;102666.50;4983066;28;20073;-63
2023/01/25 09:11:05;;;;;;;33.65;21.42;;;;;;;1.65;97.58;102666.56;4976009;28;20144;-64
2023/01/25 09:13:32;;;;;;;35.60;20.20;;;;;;;1.62;97.54;102663.06;4984455;28;20050;-62
2023/01/25 09:16:08;;;;;;;33.83;19.23;;;;;;;1.70;97.51;102674.41;4983141;28;20284;-62
2023/01/25 09:18:37;;;;;;;30.33;18.55;;;;;;;1.63;97.23;102672.59;4974434;28;20074;-63
2023/01/25 09:21:09;;;;;;;34.53;19.60;;;;;;;1.50;97.76;102671.59;4977645;28;20145;-64
2023/01/25 09:23:37;;;;;;;30.55;19.38;;;;;;;1.39;98.77;102668.00;4990887;28;20058;-63
2023/01/25 09:26:18;;;;;;;34.22;20.77;;;;;;;1.40;98.80;102660.25;4983084;28;20062;-62
2023/01/25 09:28:47;;;;;;;32.53;21.70;;;;;;;1.39;99.08;102655.88;4973741;28;20061;-63
2023/01/25 09:31:15;;;;;;;32.00;21.48;;;;;;;1.39;99.40;102655.88;4984270;28;20466;-63
2023/01/25 09:33:50;;;;;;;36.67;21.90;;;;;;;1.39;99.75;102653.28;4985303;28;20137;-62
2023/01/25 09:36:18;;;;;;;36.88;22.20;;;;;;;1.42;99.17;102653.34;4985168;28;20056;-63
2023/01/25 09:38:45;;;;;;;32.28;20.90;;;;;;;1.48;99.49;102655.97;4985415;28;20060;-63
2023/01/25 09:41:38;;;;;;;34.92;20.83;;;;;;;1.41;99.28;102649.00;4985220;28;20076;-63
2023/01/25 09:44:35;;;;;;;33.83;18.88;;;;;;;1.39;99.60;102642.91;4977671;28;20249;-64
2023/01/25 09:47:35;;;;;;;31.33;18.38;;;;;;;1.33;100.00;102641.97;4975683;28;20134;-63
2023/01/25 09:50:08;;;;;;;28.10;16.67;;;;;;;1.21;100.00;102646.16;4965355;28;20090;-62
2023/01/25 09:52:41;;;;;;;30.60;19.25;;;;;;;1.10;100.00;102639.09;4983243;28;20550;-63
2023/01/25 09:55:14;;;;;;;28.98;17.35;;;;;;;1.11;100.00;102627.88;4984913;28;20200;-63
2023/01/25 09:57:44;;;;;;;28.40;18.08;;;;;;;1.21;100.00;102630.59;4963163;28;20410;-63
2023/01/25 10:00:18;;;;;;;29.75;18.02;;;;;;;1.33;100.00;102639.38;4968310;28;20145;-63
2023/01/25 10:03:00;;;;;;;28.90;18.48;;;;;;;1.40;100.00;102631.69;4974459;28;20056;-63
2023/01/25 10:05:30;;;;;;;31.20;19.40;;;;;;;1.38;100.00;102625.59;4978781;28;20057;-64
2023/01/25 10:08:28;;;;;;;29.55;19.42;;;;;;;1.34;100.00;102623.81;4961568;28;20054;-64
2023/01/25 10:11:21;;;;;;;38.33;20.10;;;;;;;1.33;100.00;102623.81;4975087;28;20121;-63
2023/01/25 10:13:48;;;;;;;32.58;19.60;;;;;;;1.34;100.00;102621.22;4984252;28;20076;-63
2023/01/25 10:16:21;;;;;;;35.55;19.67;;;;;;;1.37;100.00;102617.81;4985646;28;20046;-64
2023/01/25 10:19:27;;;;;;;35.22;20.10;;;;;;;1.49;100.00;102615.34;4969067;28;20141;-64
2023/01/25 10:22:07;;;;;;;35.22;20.05;;;;;;;1.46;100.00;102611.00;4963077;28;20141;-64
2023/01/25 10:24:46;;;;;;;35.45;19.33;;;;;;;1.44;100.00;102606.63;4987864;28;20101;-64
2023/01/25 10:27:48;;;;;;;33.13;18.30;;;;;;;1.40;99.85;102604.88;4986675;28;20284;-64
2023/01/25 10:30:34;;;;;;;35.10;17.90;;;;;;;1.42;99.98;102585.00;4968290;28;20051;-65
2023/01/25 10:33:09;;;;;;;31.60;18.15;;;;;;;1.50;99.46;102583.34;4985369;28;20081;-64
2023/01/25 10:35:37;;;;;;;34.47;17.65;;;;;;;1.46;99.27;102586.75;4980485;28;20892;-64
2023/01/25 10:38:20;;;;;;;29.03;18.73;;;;;;;1.47;98.83;102586.75;4989820;28;20050;-64
2023/01/25 10:40:53;;;;;;;26.60;16.90;;;;;;;1.41;99.25;102589.31;4970598;28;20560;-65
2023/01/25 10:43:20;;;;;;;31.45;18.40;;;;;;;1.38;99.36;102584.06;4990276;28;20402;-64
2023/01/25 10:45:49;;;;;;;31.60;19.40;;;;;;;1.41;99.73;102580.66;4985215;28;20442;-65
2023/01/25 10:48:34;;;;;;;32.83;18.92;;;;;;;1.47;99.54;102581.56;4986629;28;20507;-65
2023/01/25 10:51:01;;;;;;;33.67;19.90;;;;;;;1.50;99.25;102570.38;4961829;28;20464;-64
2023/01/25 10:53:38;;;;;;;35.17;20.63;;;;;;;1.46;99.30;102568.59;4976574;28;20066;-64
2023/01/25 10:56:05;;;;;;;34.00;20.50;;;;;;;1.40;99.57;102564.22;4969461;28;20110;-64
2023/01/25 10:58:35;;;;;;;33.08;19.55;;;;;;;1.40;99.89;102558.16;4984737;28;20062;-65
2023/01/25 11:01:07;;;;;;;33.72;21.67;;;;;;;1.36;100.00;102558.97;4984614;28;20229;-65
2023/01/25 11:03:39;;;;;;;35.05;20.80;;;;;;;1.38;100.00;102557.25;4971600;28;20518;-65
2023/01/25 11:06:07;;;;;;;29.50;18.77;;;;;;;1.44;99.99;102550.44;4983122;28;20050;-64
2023/01/25 11:08:40;;;;;;;35.15;19.55;;;;;;;1.54;100.00;102546.19;4985726;28;20060;-65
2023/01/25 11:11:37;;;;;;;37.08;20.75;;;;;;;1.46;99.90;102530.53;4994020;28;20079;-64
2023/01/25 11:14:16;;;;;;;35.38;20.77;;;;;;;1.51;99.56;102535.75;4976517;28;20063;-64
2023/01/25 11:16:46;;;;;;;34.15;20.88;;;;;;;1.57;99.26;102532.34;4978501;28;20049;-64
2023/01/25 11:19:40;;;;;;;32.95;20.75;;;;;;;1.47;99.62;102534.84;4954793;28;20242;-64
2023/01/25 11:22:19;;;;;;;34.90;19.40;;;;;;;1.35;99.76;102521.78;4979528;28;20096;-63
2023/01/25 11:24:46;;;;;;;36.03;19.42;;;;;;;1.24;100.00;102516.47;4992513;23;20126;-76
2023/01/25 11:27:20;;;;;;;32.78;19.52;;;;;;;1.25;100.00;102513.03;4990679;28;20053;-77
2023/01/25 11:30:08;;;;;;;38.08;19.95;;;;;;;1.23;100.00;102506.09;5029617;28;20033;-76
2023/01/25 11:32:39;;;;;;;35.80;21.15;;;;;;;1.24;100.00;102505.22;5035511;28;20129;-76
2023/01/25 11:35:17;;;;;;;33.67;21.92;;;;;;;1.23;100.00;102495.72;5009537;28;20049;-76
2023/01/25 11:38:14;;;;;;;36.22;21.00;;;;;;;1.19;100.00;102484.44;5010994;28;20112;-76
2023/01/25 11:40:47;;;;;;;33.58;21.58;;;;;;;1.21;100.00;102474.06;5001492;28;20041;-75
2023/01/25 11:43:59;;;;;;;42.95;23.50;;;;;;;1.25;100.00;102473.25;4984355;28;20063;-76
2023/01/25 11:46:32;;;;;;;33.08;20.58;;;;;;;1.32;100.00;102480.22;4947154;28;20053;-75
2023/01/25 11:49:06;;;;;;;33.58;19.77;;;;;;;1.29;100.00;102469.81;5008159;28;20562;-76
2023/01/25 11:51:51;;;;;;;39.80;20.92;;;;;;;1.30;100.00;102452.53;5037269;28;20041;-77
2023/01/25 11:54:37;;;;;;;40.58;21.25;;;;;;;1.26;100.00;102449.94;5017905;28;20055;-77